Terminal Aerodrome Forecast
Issued by NWS

Home | Current Version | Previous Version | Graphics & Text | Print | Product List | Glossary On
Versions: 1 2 3 4 5 6 7 8 9 10 11 12 13 14 15 16
000
FTUS43 KGRB 121100
TAFATW
TAF
KATW 121120Z 1212/1312 33006KT P6SM SCT035 BKN100
      TEMPO 1212/1216 BKN035
     FM121600 35006KT P6SM -RA BKN040 OVC080
     FM122300 31004KT 5SM -RA BR BKN030 OVC060
     FM130600 31004KT 6SM BR VCSH OVC030
     FM131100 30004KT P6SM SCT040 SCT060=

USA.gov is the U.S. government's official web portal to all federal, state and local government web resources and services.